sensor_id;sensor_type;location;lat;lon;timestamp;P1;durP1;ratioP1;P2;durP2;ratioP2
53971;SDS011;40530;53.062;6.078;2023-04-24T00:01:14;5.43;;;4.22;;
53971;SDS011;40530;53.062;6.078;2023-04-24T00:03:42;3.95;;;3.10;;
53971;SDS011;40530;53.062;6.078;2023-04-24T00:06:08;6.07;;;3.05;;
53971;SDS011;40530;53.062;6.078;2023-04-24T00:08:34;4.88;;;3.35;;
53971;SDS011;40530;53.062;6.078;2023-04-24T00:11:01;6.88;;;3.35;;
53971;SDS011;40530;53.062;6.078;2023-04-24T00:13:27;3.90;;;3.35;;
53971;SDS011;40530;53.062;6.078;2023-04-24T00:15:56;5.10;;;3.67;;
53971;SDS011;40530;53.062;6.078;2023-04-24T00:18:22;4.85;;;3.53;;
53971;SDS011;40530;53.062;6.078;2023-04-24T00:20:48;5.72;;;3.35;;
53971;SDS011;40530;53.062;6.078;2023-04-24T00:23:14;4.78;;;3.72;;
53971;SDS011;40530;53.062;6.078;2023-04-24T00:25:40;5.40;;;3.70;;
53971;SDS011;40530;53.062;6.078;2023-04-24T00:28:06;5.90;;;3.53;;
53971;SDS011;40530;53.062;6.078;2023-04-24T00:30:32;7.78;;;3.85;;
53971;SDS011;40530;53.062;6.078;2023-04-24T00:32:58;4.85;;;3.90;;
53971;SDS011;40530;53.062;6.078;2023-04-24T00:35:24;4.20;;;3.58;;
53971;SDS011;40530;53.062;6.078;2023-04-24T00:37:50;5.35;;;3.67;;
53971;SDS011;40530;53.062;6.078;2023-04-24T00:40:16;5.28;;;3.47;;
53971;SDS011;40530;53.062;6.078;2023-04-24T00:42:43;5.75;;;3.70;;
53971;SDS011;40530;53.062;6.078;2023-04-24T00:45:10;7.90;;;2.97;;
53971;SDS011;40530;53.062;6.078;2023-04-24T00:47:36;2.92;;;2.72;;
53971;SDS011;40530;53.062;6.078;2023-04-24T00:50:03;2.55;;;2.35;;
53971;SDS011;40530;53.062;6.078;2023-04-24T00:52:29;2.75;;;2.50;;
53971;SDS011;40530;53.062;6.078;2023-04-24T00:54:58;2.60;;;2.40;;
53971;SDS011;40530;53.062;6.078;2023-04-24T00:57:24;3.25;;;1.92;;
53971;SDS011;40530;53.062;6.078;2023-04-24T00:59:51;2.47;;;2.28;;
53971;SDS011;40530;53.062;6.078;2023-04-24T01:02:17;2.33;;;2.13;;
53971;SDS011;40530;53.062;6.078;2023-04-24T01:04:43;2.65;;;2.15;;
53971;SDS011;40530;53.062;6.078;2023-04-24T01:07:09;2.20;;;2.00;;
53971;SDS011;40530;53.062;6.078;2023-04-24T01:09:39;2.28;;;2.08;;
53971;SDS011;40530;53.062;6.078;2023-04-24T01:12:06;2.00;;;1.90;;
53971;SDS011;40530;53.062;6.078;2023-04-24T01:14:33;1.83;;;1.73;;
53971;SDS011;40530;53.062;6.078;2023-04-24T01:16:59;3.17;;;2.00;;
53971;SDS011;40530;53.062;6.078;2023-04-24T01:19:25;2.20;;;2.03;;
53971;SDS011;40530;53.062;6.078;2023-04-24T01:21:52;4.70;;;2.80;;
53971;SDS011;40530;53.062;6.078;2023-04-24T01:24:19;2.10;;;1.90;;
53971;SDS011;40530;53.062;6.078;2023-04-24T01:26:46;5.32;;;2.20;;
53971;SDS011;40530;53.062;6.078;2023-04-24T01:29:12;2.28;;;2.08;;
53971;SDS011;40530;53.062;6.078;2023-04-24T01:31:38;3.15;;;2.85;;
53971;SDS011;40530;53.062;6.078;2023-04-24T01:34:05;3.03;;;2.10;;
53971;SDS011;40530;53.062;6.078;2023-04-24T01:36:33;2.38;;;2.17;;
53971;SDS011;40530;53.062;6.078;2023-04-24T01:39:01;6.50;;;2.30;;
53971;SDS011;40530;53.062;6.078;2023-04-24T01:41:28;2.88;;;2.20;;
53971;SDS011;40530;53.062;6.078;2023-04-24T01:43:54;2.85;;;2.65;;
53971;SDS011;40530;53.062;6.078;2023-04-24T01:46:20;2.20;;;2.00;;
53971;SDS011;40530;53.062;6.078;2023-04-24T01:48:46;3.70;;;2.75;;
53971;SDS011;40530;53.062;6.078;2023-04-24T01:51:12;7.43;;;2.40;;
53971;SDS011;40530;53.062;6.078;2023-04-24T01:53:38;3.20;;;2.40;;
53971;SDS011;40530;53.062;6.078;2023-04-24T01:56:04;6.18;;;2.72;;
53971;SDS011;40530;53.062;6.078;2023-04-24T01:58:30;2.70;;;2.42;;
53971;SDS011;40530;53.062;6.078;2023-04-24T02:00:57;3.03;;;2.80;;
53971;SDS011;40530;53.062;6.078;2023-04-24T02:03:24;3.92;;;3.33;;
53971;SDS011;40530;53.062;6.078;2023-04-24T02:05:50;3.65;;;3.35;;
53971;SDS011;40530;53.062;6.078;2023-04-24T02:08:16;4.35;;;3.97;;
53971;SDS011;40530;53.062;6.078;2023-04-24T02:10:43;6.10;;;4.18;;
53971;SDS011;40530;53.062;6.078;2023-04-24T02:13:09;5.30;;;4.47;;
53971;SDS011;40530;53.062;6.078;2023-04-24T02:15:35;5.65;;;5.15;;
53971;SDS011;40530;53.062;6.078;2023-04-24T02:18:01;5.10;;;4.45;;
53971;SDS011;40530;53.062;6.078;2023-04-24T02:20:27;6.30;;;4.85;;
53971;SDS011;40530;53.062;6.078;2023-04-24T02:22:53;5.65;;;5.15;;
53971;SDS011;40530;53.062;6.078;2023-04-24T02:25:20;5.25;;;4.85;;
53971;SDS011;40530;53.062;6.078;2023-04-24T02:27:46;6.05;;;5.03;;
53971;SDS011;40530;53.062;6.078;2023-04-24T02:30:12;6.18;;;5.25;;
53971;SDS011;40530;53.062;6.078;2023-04-24T02:32:38;7.57;;;6.00;;
53971;SDS011;40530;53.062;6.078;2023-04-24T02:35:04;6.55;;;5.85;;
53971;SDS011;40530;53.062;6.078;2023-04-24T02:37:30;7.93;;;5.75;;
53971;SDS011;40530;53.062;6.078;2023-04-24T02:39:56;6.63;;;5.93;;
53971;SDS011;40530;53.062;6.078;2023-04-24T02:42:22;6.28;;;5.75;;
53971;SDS011;40530;53.062;6.078;2023-04-24T02:44:48;7.30;;;6.10;;
53971;SDS011;40530;53.062;6.078;2023-04-24T02:47:16;8.15;;;5.90;;
53971;SDS011;40530;53.062;6.078;2023-04-24T02:49:42;7.80;;;6.68;;
53971;SDS011;40530;53.062;6.078;2023-04-24T02:52:08;7.70;;;6.90;;
53971;SDS011;40530;53.062;6.078;2023-04-24T02:54:34;8.35;;;7.20;;
53971;SDS011;40530;53.062;6.078;2023-04-24T02:57:00;9.45;;;7.25;;
53971;SDS011;40530;53.062;6.078;2023-04-24T02:59:26;8.63;;;7.70;;
53971;SDS011;40530;53.062;6.078;2023-04-24T03:01:53;10.80;;;7.53;;
53971;SDS011;40530;53.062;6.078;2023-04-24T03:04:21;8.80;;;7.35;;
53971;SDS011;40530;53.062;6.078;2023-04-24T03:06:47;9.23;;;8.32;;
53971;SDS011;40530;53.062;6.078;2023-04-24T03:09:13;9.43;;;8.38;;
53971;SDS011;40530;53.062;6.078;2023-04-24T03:11:40;10.48;;;8.75;;
53971;SDS011;40530;53.062;6.078;2023-04-24T03:14:06;10.82;;;9.07;;
53971;SDS011;40530;53.062;6.078;2023-04-24T03:16:32;12.40;;;8.75;;
53971;SDS011;40530;53.062;6.078;2023-04-24T03:18:58;10.57;;;9.57;;
53971;SDS011;40530;53.062;6.078;2023-04-24T03:21:24;10.27;;;9.27;;
53971;SDS011;40530;53.062;6.078;2023-04-24T03:23:51;10.77;;;9.68;;
53971;SDS011;40530;53.062;6.078;2023-04-24T03:26:17;12.77;;;10.43;;
53971;SDS011;40530;53.062;6.078;2023-04-24T03:28:43;11.90;;;10.45;;
53971;SDS011;40530;53.062;6.078;2023-04-24T03:31:09;11.32;;;10.23;;
53971;SDS011;40530;53.062;6.078;2023-04-24T03:33:35;11.13;;;10.02;;
53971;SDS011;40530;53.062;6.078;2023-04-24T03:36:01;15.20;;;10.52;;
53971;SDS011;40530;53.062;6.078;2023-04-24T03:38:27;5.85;;;5.35;;
53971;SDS011;40530;53.062;6.078;2023-04-24T03:40:53;5.55;;;4.63;;
53971;SDS011;40530;53.062;6.078;2023-04-24T03:43:19;4.00;;;3.70;;
53971;SDS011;40530;53.062;6.078;2023-04-24T03:45:45;2.97;;;2.40;;
53971;SDS011;40530;53.062;6.078;2023-04-24T03:48:11;2.20;;;2.00;;
53971;SDS011;40530;53.062;6.078;2023-04-24T03:50:37;2.55;;;2.35;;
53971;SDS011;40530;53.062;6.078;2023-04-24T03:53:03;1.30;;;1.20;;
53971;SDS011;40530;53.062;6.078;2023-04-24T03:55:30;1.58;;;1.17;;
53971;SDS011;40530;53.062;6.078;2023-04-24T03:57:59;1.10;;;1.00;;
53971;SDS011;40530;53.062;6.078;2023-04-24T04:00:25;1.38;;;1.08;;
53971;SDS011;40530;53.062;6.078;2023-04-24T04:02:52;0.95;;;0.90;;
53971;SDS011;40530;53.062;6.078;2023-04-24T04:05:19;1.65;;;0.85;;
53971;SDS011;40530;53.062;6.078;2023-04-24T04:07:45;3.35;;;0.75;;
53971;SDS011;40530;53.062;6.078;2023-04-24T04:10:11;1.00;;;0.90;;
53971;SDS011;40530;53.062;6.078;2023-04-24T04:12:38;1.02;;;0.82;;
53971;SDS011;40530;53.062;6.078;2023-04-24T04:15:04;0.98;;;0.98;;
53971;SDS011;40530;53.062;6.078;2023-04-24T04:17:31;2.28;;;0.90;;
53971;SDS011;40530;53.062;6.078;2023-04-24T04:19:58;0.90;;;0.90;;
53971;SDS011;40530;53.062;6.078;2023-04-24T04:22:24;1.33;;;1.08;;
53971;SDS011;40530;53.062;6.078;2023-04-24T04:24:50;1.20;;;1.10;;
53971;SDS011;40530;53.062;6.078;2023-04-24T04:27:16;3.15;;;1.15;;
53971;SDS011;40530;53.062;6.078;2023-04-24T04:29:43;2.20;;;1.58;;
53971;SDS011;40530;53.062;6.078;2023-04-24T04:32:09;2.05;;;1.58;;
53971;SDS011;40530;53.062;6.078;2023-04-24T04:34:35;2.10;;;1.90;;
53971;SDS011;40530;53.062;6.078;2023-04-24T04:37:03;3.22;;;2.22;;
53971;SDS011;40530;53.062;6.078;2023-04-24T04:39:29;2.35;;;1.95;;
53971;SDS011;40530;53.062;6.078;2023-04-24T04:41:55;6.25;;;2.53;;
53971;SDS011;40530;53.062;6.078;2023-04-24T04:44:21;3.15;;;2.30;;
53971;SDS011;40530;53.062;6.078;2023-04-24T04:46:48;1.95;;;1.85;;
53971;SDS011;40530;53.062;6.078;2023-04-24T04:49:15;3.60;;;2.17;;
53971;SDS011;40530;53.062;6.078;2023-04-24T04:51:41;2.92;;;2.25;;
53971;SDS011;40530;53.062;6.078;2023-04-24T04:54:07;2.95;;;2.20;;
53971;SDS011;40530;53.062;6.078;2023-04-24T04:56:34;6.20;;;2.40;;
53971;SDS011;40530;53.062;6.078;2023-04-24T05:01:31;3.83;;;3.03;;
53971;SDS011;40530;53.062;6.078;2023-04-24T05:03:58;4.32;;;3.47;;
53971;SDS011;40530;53.062;6.078;2023-04-24T05:06:25;3.60;;;3.30;;
53971;SDS011;40530;53.062;6.078;2023-04-24T05:08:52;5.40;;;4.10;;
53971;SDS011;40530;53.062;6.078;2023-04-24T05:11:22;4.25;;;3.70;;
53971;SDS011;40530;53.062;6.078;2023-04-24T05:13:48;5.40;;;4.13;;
53971;SDS011;40530;53.062;6.078;2023-04-24T05:18:52;7.65;;;4.10;;
53971;SDS011;40530;53.062;6.078;2023-04-24T05:21:18;5.97;;;4.10;;
53971;SDS011;40530;53.062;6.078;2023-04-24T05:23:44;6.43;;;3.85;;
53971;SDS011;40530;53.062;6.078;2023-04-24T05:26:10;6.68;;;4.10;;
53971;SDS011;40530;53.062;6.078;2023-04-24T05:28:36;6.63;;;3.90;;
53971;SDS011;40530;53.062;6.078;2023-04-24T05:31:02;7.72;;;3.65;;
53971;SDS011;40530;53.062;6.078;2023-04-24T05:33:29;5.75;;;3.70;;
53971;SDS011;40530;53.062;6.078;2023-04-24T05:35:55;4.50;;;3.85;;
53971;SDS011;40530;53.062;6.078;2023-04-24T05:38:21;9.77;;;4.90;;
53971;SDS011;40530;53.062;6.078;2023-04-24T05:40:47;5.80;;;4.35;;
53971;SDS011;40530;53.062;6.078;2023-04-24T05:43:13;7.65;;;4.97;;
53971;SDS011;40530;53.062;6.078;2023-04-24T05:45:39;10.15;;;6.13;;
53971;SDS011;40530;53.062;6.078;2023-04-24T05:48:05;9.23;;;5.60;;
53971;SDS011;40530;53.062;6.078;2023-04-24T05:50:31;6.82;;;5.22;;
53971;SDS011;40530;53.062;6.078;2023-04-24T05:52:57;12.07;;;4.63;;
53971;SDS011;40530;53.062;6.078;2023-04-24T05:55:26;8.73;;;4.25;;
53971;SDS011;40530;53.062;6.078;2023-04-24T05:57:52;6.90;;;4.38;;
53971;SDS011;40530;53.062;6.078;2023-04-24T06:00:18;16.65;;;10.00;;
53971;SDS011;40530;53.062;6.078;2023-04-24T06:02:45;6.43;;;4.53;;
53971;SDS011;40530;53.062;6.078;2023-04-24T06:05:11;6.38;;;3.92;;
53971;SDS011;40530;53.062;6.078;2023-04-24T06:07:37;4.50;;;2.63;;
53971;SDS011;40530;53.062;6.078;2023-04-24T06:10:03;4.43;;;2.50;;
53971;SDS011;40530;53.062;6.078;2023-04-24T06:12:30;5.57;;;2.75;;
53971;SDS011;40530;53.062;6.078;2023-04-24T06:14:56;5.03;;;2.33;;
53971;SDS011;40530;53.062;6.078;2023-04-24T06:17:22;2.20;;;2.00;;
53971;SDS011;40530;53.062;6.078;2023-04-24T06:19:48;3.78;;;1.90;;
53971;SDS011;40530;53.062;6.078;2023-04-24T06:22:14;3.58;;;1.77;;
53971;SDS011;40530;53.062;6.078;2023-04-24T06:24:40;4.70;;;1.58;;
53971;SDS011;40530;53.062;6.078;2023-04-24T06:27:06;3.65;;;1.30;;
53971;SDS011;40530;53.062;6.078;2023-04-24T06:29:33;5.38;;;1.58;;
53971;SDS011;40530;53.062;6.078;2023-04-24T06:31:59;5.20;;;1.33;;
53971;SDS011;40530;53.062;6.078;2023-04-24T06:34:25;4.88;;;1.27;;
53971;SDS011;40530;53.062;6.078;2023-04-24T06:36:51;4.78;;;1.48;;
53971;SDS011;40530;53.062;6.078;2023-04-24T06:39:17;5.75;;;1.52;;
53971;SDS011;40530;53.062;6.078;2023-04-24T06:41:43;4.05;;;1.52;;
53971;SDS011;40530;53.062;6.078;2023-04-24T06:44:09;5.43;;;1.73;;
53971;SDS011;40530;53.062;6.078;2023-04-24T06:46:35;6.15;;;2.10;;
53971;SDS011;40530;53.062;6.078;2023-04-24T06:49:01;3.60;;;1.83;;
53971;SDS011;40530;53.062;6.078;2023-04-24T06:51:27;5.78;;;2.30;;
53971;SDS011;40530;53.062;6.078;2023-04-24T06:53:53;7.28;;;2.45;;
53971;SDS011;40530;53.062;6.078;2023-04-24T06:56:21;6.88;;;2.05;;
53971;SDS011;40530;53.062;6.078;2023-04-24T06:58:47;2.85;;;1.80;;
53971;SDS011;40530;53.062;6.078;2023-04-24T07:01:13;10.77;;;2.03;;
53971;SDS011;40530;53.062;6.078;2023-04-24T07:03:39;7.90;;;2.08;;
53971;SDS011;40530;53.062;6.078;2023-04-24T07:06:05;10.02;;;2.25;;
53971;SDS011;40530;53.062;6.078;2023-04-24T07:08:31;8.38;;;2.47;;
53971;SDS011;40530;53.062;6.078;2023-04-24T07:10:58;7.20;;;3.35;;
53971;SDS011;40530;53.062;6.078;2023-04-24T07:13:24;13.65;;;5.05;;
53971;SDS011;40530;53.062;6.078;2023-04-24T07:15:51;11.18;;;4.97;;
53971;SDS011;40530;53.062;6.078;2023-04-24T07:18:19;8.13;;;4.40;;
53971;SDS011;40530;53.062;6.078;2023-04-24T07:20:45;10.50;;;5.78;;
53971;SDS011;40530;53.062;6.078;2023-04-24T07:23:11;13.70;;;7.35;;
53971;SDS011;40530;53.062;6.078;2023-04-24T07:25:37;16.13;;;8.05;;
53971;SDS011;40530;53.062;6.078;2023-04-24T07:28:04;17.35;;;8.85;;
53971;SDS011;40530;53.062;6.078;2023-04-24T07:30:30;19.77;;;9.77;;
53971;SDS011;40530;53.062;6.078;2023-04-24T07:32:58;19.08;;;10.50;;
53971;SDS011;40530;53.062;6.078;2023-04-24T07:35:24;18.55;;;10.65;;
53971;SDS011;40530;53.062;6.078;2023-04-24T07:37:51;18.90;;;10.57;;
53971;SDS011;40530;53.062;6.078;2023-04-24T07:40:19;14.02;;;9.63;;
53971;SDS011;40530;53.062;6.078;2023-04-24T07:42:46;19.77;;;8.23;;
53971;SDS011;40530;53.062;6.078;2023-04-24T07:45:13;14.80;;;8.80;;
53971;SDS011;40530;53.062;6.078;2023-04-24T07:47:41;14.70;;;8.77;;
53971;SDS011;40530;53.062;6.078;2023-04-24T07:50:08;16.23;;;8.02;;
53971;SDS011;40530;53.062;6.078;2023-04-24T07:52:35;18.38;;;8.63;;
53971;SDS011;40530;53.062;6.078;2023-04-24T07:55:01;19.58;;;9.35;;
53971;SDS011;40530;53.062;6.078;2023-04-24T07:57:27;17.00;;;10.00;;
53971;SDS011;40530;53.062;6.078;2023-04-24T07:59:54;16.27;;;10.48;;
53971;SDS011;40530;53.062;6.078;2023-04-24T08:02:20;20.73;;;11.60;;
53971;SDS011;40530;53.062;6.078;2023-04-24T08:04:51;21.60;;;11.13;;
53971;SDS011;40530;53.062;6.078;2023-04-24T08:07:17;20.73;;;11.75;;
53971;SDS011;40530;53.062;6.078;2023-04-24T08:09:43;24.98;;;11.65;;
53971;SDS011;40530;53.062;6.078;2023-04-24T08:12:09;16.83;;;10.20;;
53971;SDS011;40530;53.062;6.078;2023-04-24T08:14:35;18.40;;;10.50;;
53971;SDS011;40530;53.062;6.078;2023-04-24T08:17:01;17.48;;;9.40;;
53971;SDS011;40530;53.062;6.078;2023-04-24T08:19:28;16.67;;;8.55;;
53971;SDS011;40530;53.062;6.078;2023-04-24T08:21:54;16.90;;;9.00;;
53971;SDS011;40530;53.062;6.078;2023-04-24T08:24:20;12.85;;;8.00;;
53971;SDS011;40530;53.062;6.078;2023-04-24T08:26:46;12.35;;;6.43;;
53971;SDS011;40530;53.062;6.078;2023-04-24T08:29:16;12.15;;;5.85;;
53971;SDS011;40530;53.062;6.078;2023-04-24T08:31:42;11.88;;;5.80;;
53971;SDS011;40530;53.062;6.078;2023-04-24T08:34:09;11.27;;;6.00;;
53971;SDS011;40530;53.062;6.078;2023-04-24T08:36:37;13.40;;;5.40;;
53971;SDS011;40530;53.062;6.078;2023-04-24T08:39:05;12.20;;;5.53;;
53971;SDS011;40530;53.062;6.078;2023-04-24T08:41:31;15.20;;;4.90;;
53971;SDS011;40530;53.062;6.078;2023-04-24T08:43:58;9.10;;;5.30;;
53971;SDS011;40530;53.062;6.078;2023-04-24T08:46:24;10.02;;;4.60;;
53971;SDS011;40530;53.062;6.078;2023-04-24T08:48:50;9.50;;;5.10;;
53971;SDS011;40530;53.062;6.078;2023-04-24T08:51:18;14.98;;;6.25;;
53971;SDS011;40530;53.062;6.078;2023-04-24T08:53:44;12.10;;;5.30;;
53971;SDS011;40530;53.062;6.078;2023-04-24T08:56:11;11.52;;;4.47;;
53971;SDS011;40530;53.062;6.078;2023-04-24T08:58:37;13.55;;;7.00;;
53971;SDS011;40530;53.062;6.078;2023-04-24T09:01:04;12.88;;;5.18;;
53971;SDS011;40530;53.062;6.078;2023-04-24T09:03:30;16.23;;;5.82;;
53971;SDS011;40530;53.062;6.078;2023-04-24T09:05:57;11.15;;;4.82;;
53971;SDS011;40530;53.062;6.078;2023-04-24T09:08:23;11.68;;;4.80;;
53971;SDS011;40530;53.062;6.078;2023-04-24T09:10:50;13.73;;;4.15;;
53971;SDS011;40530;53.062;6.078;2023-04-24T09:13:16;10.52;;;3.80;;
53971;SDS011;40530;53.062;6.078;2023-04-24T09:15:42;12.75;;;3.35;;
53971;SDS011;40530;53.062;6.078;2023-04-24T09:18:08;10.25;;;3.88;;
53971;SDS011;40530;53.062;6.078;2023-04-24T09:20:34;11.63;;;3.67;;
53971;SDS011;40530;53.062;6.078;2023-04-24T09:23:01;6.20;;;2.63;;
53971;SDS011;40530;53.062;6.078;2023-04-24T09:25:36;7.40;;;3.35;;
53971;SDS011;40530;53.062;6.078;2023-04-24T09:28:03;7.78;;;2.78;;
53971;SDS011;40530;53.062;6.078;2023-04-24T09:30:29;9.63;;;3.70;;
53971;SDS011;40530;53.062;6.078;2023-04-24T09:33:12;8.88;;;3.70;;
53971;SDS011;40530;53.062;6.078;2023-04-24T09:35:42;8.32;;;2.47;;
53971;SDS011;40530;53.062;6.078;2023-04-24T09:38:08;7.38;;;2.55;;
53971;SDS011;40530;53.062;6.078;2023-04-24T09:40:36;11.23;;;2.75;;
53971;SDS011;40530;53.062;6.078;2023-04-24T09:43:02;14.88;;;2.85;;
53971;SDS011;40530;53.062;6.078;2023-04-24T09:45:34;7.32;;;2.08;;
53971;SDS011;40530;53.062;6.078;2023-04-24T09:48:01;9.52;;;2.65;;
53971;SDS011;40530;53.062;6.078;2023-04-24T09:50:29;13.35;;;2.60;;
53971;SDS011;40530;53.062;6.078;2023-04-24T09:53:05;14.75;;;2.58;;
53971;SDS011;40530;53.062;6.078;2023-04-24T09:55:39;13.43;;;3.05;;
53971;SDS011;40530;53.062;6.078;2023-04-24T09:58:07;7.95;;;2.13;;
53971;SDS011;40530;53.062;6.078;2023-04-24T10:00:35;11.90;;;2.50;;
53971;SDS011;40530;53.062;6.078;2023-04-24T10:03:05;8.80;;;2.28;;
53971;SDS011;40530;53.062;6.078;2023-04-24T10:05:35;18.83;;;3.65;;
53971;SDS011;40530;53.062;6.078;2023-04-24T10:08:07;12.20;;;2.60;;
53971;SDS011;40530;53.062;6.078;2023-04-24T10:10:34;8.40;;;2.20;;
53971;SDS011;40530;53.062;6.078;2023-04-24T10:13:01;11.48;;;2.42;;
53971;SDS011;40530;53.062;6.078;2023-04-24T10:15:27;11.50;;;3.60;;
53971;SDS011;40530;53.062;6.078;2023-04-24T10:17:54;13.30;;;2.50;;
53971;SDS011;40530;53.062;6.078;2023-04-24T10:20:24;12.32;;;2.83;;
53971;SDS011;40530;53.062;6.078;2023-04-24T10:22:53;11.23;;;2.55;;
53971;SDS011;40530;53.062;6.078;2023-04-24T10:25:20;8.57;;;2.78;;
53971;SDS011;40530;53.062;6.078;2023-04-24T10:27:47;11.32;;;2.85;;
53971;SDS011;40530;53.062;6.078;2023-04-24T10:30:14;13.10;;;2.97;;
53971;SDS011;40530;53.062;6.078;2023-04-24T10:32:43;12.90;;;2.25;;
53971;SDS011;40530;53.062;6.078;2023-04-24T10:35:10;12.15;;;2.65;;
53971;SDS011;40530;53.062;6.078;2023-04-24T10:37:38;13.75;;;2.15;;
53971;SDS011;40530;53.062;6.078;2023-04-24T10:40:05;15.90;;;2.20;;
53971;SDS011;40530;53.062;6.078;2023-04-24T10:42:34;11.85;;;2.38;;
53971;SDS011;40530;53.062;6.078;2023-04-24T10:45:04;14.88;;;2.00;;
53971;SDS011;40530;53.062;6.078;2023-04-24T10:47:39;8.30;;;2.13;;
53971;SDS011;40530;53.062;6.078;2023-04-24T10:50:07;8.85;;;1.60;;
53971;SDS011;40530;53.062;6.078;2023-04-24T10:52:46;10.18;;;2.03;;
53971;SDS011;40530;53.062;6.078;2023-04-24T10:55:13;7.10;;;1.48;;
53971;SDS011;40530;53.062;6.078;2023-04-24T11:00:26;8.70;;;1.70;;
53971;SDS011;40530;53.062;6.078;2023-04-24T11:02:52;13.07;;;1.67;;
53971;SDS011;40530;53.062;6.078;2023-04-24T11:05:19;9.40;;;2.55;;
53971;SDS011;40530;53.062;6.078;2023-04-24T11:10:30;8.75;;;1.90;;
53971;SDS011;40530;53.062;6.078;2023-04-24T11:12:56;6.43;;;1.77;;
53971;SDS011;40530;53.062;6.078;2023-04-24T11:15:22;8.52;;;2.03;;
53971;SDS011;40530;53.062;6.078;2023-04-24T11:17:48;6.60;;;1.60;;
53971;SDS011;40530;53.062;6.078;2023-04-24T11:20:17;5.80;;;1.42;;
53971;SDS011;40530;53.062;6.078;2023-04-24T11:22:43;4.28;;;1.67;;
53971;SDS011;40530;53.062;6.078;2023-04-24T11:25:09;8.05;;;1.70;;
53971;SDS011;40530;53.062;6.078;2023-04-24T11:27:40;4.38;;;1.20;;
53971;SDS011;40530;53.062;6.078;2023-04-24T11:30:07;6.75;;;1.58;;
53971;SDS011;40530;53.062;6.078;2023-04-24T11:35:03;11.57;;;1.63;;
53971;SDS011;40530;53.062;6.078;2023-04-24T11:37:34;5.47;;;1.38;;
53971;SDS011;40530;53.062;6.078;2023-04-24T11:40:01;5.88;;;1.40;;
53971;SDS011;40530;53.062;6.078;2023-04-24T11:42:28;5.93;;;1.05;;
53971;SDS011;40530;53.062;6.078;2023-04-24T11:44:54;8.20;;;0.93;;
53971;SDS011;40530;53.062;6.078;2023-04-24T11:47:30;4.82;;;1.50;;
53971;SDS011;40530;53.062;6.078;2023-04-24T11:49:59;4.60;;;1.10;;
53971;SDS011;40530;53.062;6.078;2023-04-24T11:52:28;6.00;;;1.10;;
53971;SDS011;40530;53.062;6.078;2023-04-24T11:54:54;8.55;;;2.00;;
53971;SDS011;40530;53.062;6.078;2023-04-24T11:57:21;4.15;;;1.00;;
53971;SDS011;40530;53.062;6.078;2023-04-24T11:59:47;5.70;;;1.45;;
53971;SDS011;40530;53.062;6.078;2023-04-24T12:02:23;4.35;;;1.63;;
53971;SDS011;40530;53.062;6.078;2023-04-24T12:04:49;7.40;;;1.50;;
53971;SDS011;40530;53.062;6.078;2023-04-24T12:07:15;5.78;;;1.35;;
53971;SDS011;40530;53.062;6.078;2023-04-24T12:09:42;4.65;;;0.98;;
53971;SDS011;40530;53.062;6.078;2023-04-24T12:12:08;6.75;;;1.33;;
53971;SDS011;40530;53.062;6.078;2023-04-24T12:14:48;6.80;;;1.10;;
53971;SDS011;40530;53.062;6.078;2023-04-24T12:17:15;4.13;;;1.25;;
53971;SDS011;40530;53.062;6.078;2023-04-24T12:19:50;7.75;;;0.93;;
53971;SDS011;40530;53.062;6.078;2023-04-24T12:22:16;6.32;;;1.13;;
53971;SDS011;40530;53.062;6.078;2023-04-24T12:25:01;4.95;;;0.85;;
53971;SDS011;40530;53.062;6.078;2023-04-24T12:27:29;6.93;;;1.00;;
53971;SDS011;40530;53.062;6.078;2023-04-24T12:29:56;9.95;;;1.45;;
53971;SDS011;40530;53.062;6.078;2023-04-24T12:32:24;10.07;;;1.38;;
53971;SDS011;40530;53.062;6.078;2023-04-24T12:34:50;11.27;;;1.23;;
53971;SDS011;40530;53.062;6.078;2023-04-24T12:37:17;8.77;;;1.88;;
53971;SDS011;40530;53.062;6.078;2023-04-24T12:42:28;9.05;;;1.73;;
53971;SDS011;40530;53.062;6.078;2023-04-24T12:45:12;3.03;;;0.63;;
53971;SDS011;40530;53.062;6.078;2023-04-24T12:47:39;2.45;;;0.68;;
53971;SDS011;40530;53.062;6.078;2023-04-24T12:50:07;5.35;;;0.88;;
53971;SDS011;40530;53.062;6.078;2023-04-24T12:52:33;3.90;;;0.73;;
53971;SDS011;40530;53.062;6.078;2023-04-24T12:54:59;9.75;;;0.77;;
53971;SDS011;40530;53.062;6.078;2023-04-24T12:57:26;2.75;;;0.85;;
53971;SDS011;40530;53.062;6.078;2023-04-24T12:59:53;8.07;;;1.17;;
53971;SDS011;40530;53.062;6.078;2023-04-24T13:02:20;4.45;;;0.60;;
53971;SDS011;40530;53.062;6.078;2023-04-24T13:04:47;3.28;;;0.82;;
53971;SDS011;40530;53.062;6.078;2023-04-24T13:07:13;2.00;;;0.52;;
53971;SDS011;40530;53.062;6.078;2023-04-24T13:09:40;7.07;;;3.05;;
53971;SDS011;40530;53.062;6.078;2023-04-24T13:12:07;2.97;;;0.95;;
53971;SDS011;40530;53.062;6.078;2023-04-24T13:14:34;4.70;;;0.88;;
53971;SDS011;40530;53.062;6.078;2023-04-24T13:17:00;3.45;;;0.60;;
53971;SDS011;40530;53.062;6.078;2023-04-24T13:19:26;5.70;;;1.33;;
53971;SDS011;40530;53.062;6.078;2023-04-24T13:21:53;5.85;;;0.93;;
53971;SDS011;40530;53.062;6.078;2023-04-24T13:24:20;4.35;;;0.85;;
53971;SDS011;40530;53.062;6.078;2023-04-24T13:26:49;2.92;;;0.88;;
53971;SDS011;40530;53.062;6.078;2023-04-24T13:29:15;5.13;;;1.15;;
53971;SDS011;40530;53.062;6.078;2023-04-24T13:31:41;6.55;;;1.60;;
53971;SDS011;40530;53.062;6.078;2023-04-24T13:34:07;8.50;;;2.30;;
53971;SDS011;40530;53.062;6.078;2023-04-24T13:36:33;22.98;;;2.00;;
53971;SDS011;40530;53.062;6.078;2023-04-24T13:39:00;15.40;;;2.35;;
53971;SDS011;40530;53.062;6.078;2023-04-24T13:41:26;10.05;;;1.83;;
53971;SDS011;40530;53.062;6.078;2023-04-24T13:43:52;9.85;;;1.80;;
53971;SDS011;40530;53.062;6.078;2023-04-24T13:46:18;12.93;;;2.03;;
53971;SDS011;40530;53.062;6.078;2023-04-24T13:48:44;17.13;;;3.45;;
53971;SDS011;40530;53.062;6.078;2023-04-24T13:51:11;17.33;;;2.35;;
53971;SDS011;40530;53.062;6.078;2023-04-24T13:53:37;5.97;;;1.67;;
53971;SDS011;40530;53.062;6.078;2023-04-24T13:56:04;16.35;;;2.55;;
53971;SDS011;40530;53.062;6.078;2023-04-24T13:58:30;8.80;;;1.80;;
53971;SDS011;40530;53.062;6.078;2023-04-24T14:00:57;10.30;;;2.22;;
53971;SDS011;40530;53.062;6.078;2023-04-24T14:03:23;12.82;;;3.35;;
53971;SDS011;40530;53.062;6.078;2023-04-24T14:05:50;13.32;;;2.53;;
53971;SDS011;40530;53.062;6.078;2023-04-24T14:08:16;21.38;;;3.47;;
53971;SDS011;40530;53.062;6.078;2023-04-24T14:10:42;15.65;;;2.92;;
53971;SDS011;40530;53.062;6.078;2023-04-24T14:13:08;14.80;;;3.78;;
53971;SDS011;40530;53.062;6.078;2023-04-24T14:15:35;12.85;;;2.80;;
53971;SDS011;40530;53.062;6.078;2023-04-24T14:18:01;11.85;;;2.45;;
53971;SDS011;40530;53.062;6.078;2023-04-24T14:20:28;14.00;;;2.75;;
53971;SDS011;40530;53.062;6.078;2023-04-24T14:22:54;14.52;;;2.58;;
53971;SDS011;40530;53.062;6.078;2023-04-24T14:25:20;17.75;;;2.47;;
53971;SDS011;40530;53.062;6.078;2023-04-24T14:27:48;15.88;;;2.95;;
53971;SDS011;40530;53.062;6.078;2023-04-24T14:30:14;10.60;;;2.08;;
53971;SDS011;40530;53.062;6.078;2023-04-24T14:32:41;8.98;;;2.33;;
53971;SDS011;40530;53.062;6.078;2023-04-24T14:35:07;17.27;;;2.47;;
53971;SDS011;40530;53.062;6.078;2023-04-24T14:37:33;17.00;;;2.95;;
53971;SDS011;40530;53.062;6.078;2023-04-24T14:40:00;15.32;;;3.20;;
53971;SDS011;40530;53.062;6.078;2023-04-24T14:42:26;16.92;;;2.90;;
53971;SDS011;40530;53.062;6.078;2023-04-24T14:44:53;10.85;;;2.55;;
53971;SDS011;40530;53.062;6.078;2023-04-24T14:47:19;15.23;;;2.70;;
53971;SDS011;40530;53.062;6.078;2023-04-24T14:49:49;12.13;;;2.67;;
53971;SDS011;40530;53.062;6.078;2023-04-24T14:52:16;13.80;;;3.50;;
53971;SDS011;40530;53.062;6.078;2023-04-24T14:54:43;12.10;;;2.20;;
53971;SDS011;40530;53.062;6.078;2023-04-24T14:57:09;13.85;;;2.50;;